DW7955 Weather Reports


time (UTC)temp
C
wind
direction
speed
KPH
gust
KPH
rain 1hr
cm
rain 24hr
cm
rain mn
cm
humidity
%
barometer
mb
20240614130005 19 1 8.0 14.5 0.00 0.00 0.00 72 1005.0
20240614124506 18 340 3.2 6.4 0.00 0.00 0.00 74 1005.2
20240614123012 17 264 0.0 3.2 0.00 0.00 0.00 76 1005.6
20240614121509 17 285 0.0 6.4 0.00 0.00 0.00 76 1005.7
20240614120002 17 323 4.8 9.7 0.00 0.00 0.00 77 1005.6
20240614114502 17 340 6.4 16.1 0.00 0.00 0.00 77 1005.1
20240614113114 17 1 8.0 14.5 0.00 0.00 0.00 77 1005.3
20240614111559 18 346 9.7 19.3 0.00 0.00 0.00 76 1005.3
20240614110103 18 10 12.9 22.5 0.00 0.00 0.00 75 1005.4
20240614104556 18 14 12.9 19.3 0.00 0.00 0.00 74 1004.8
20240614103054 18 7 12.9 24.1 0.00 0.00 0.00 71 1005.0
20240614101601 18 6 12.9 20.9 0.00 0.00 0.00 68 1005.1
20240614100054 19 14 12.9 20.9 0.00 0.00 0.00 63 1005.4
20240614094553 19 14 11.3 19.3 0.00 0.00 0.00 61 1005.4
20240614093054 19 7 12.9 20.9 0.00 0.00 0.00 58 1005.6
20240614091546 19 13 12.9 20.9 0.00 0.00 0.00 58 1005.8
20240614090041 19 18 14.5 22.5 0.00 0.00 0.00 54 1005.7
20240614084533 20 18 11.3 19.3 0.00 0.00 0.00 50 1005.8
20240614083032 20 1 11.3 19.3 0.00 0.00 0.00 49 1005.8
20240614081526 20 22 8.0 14.5 0.00 0.00 0.00 47 1006.0
20240614080024 21 33 8.0 14.5 0.00 0.00 0.00 46 1006.2
20240614074521 21 36 9.7 14.5 0.00 0.00 0.00 44 1006.3
20240614073025 21 46 12.9 16.1 0.00 0.00 0.00 45 1006.1
20240614071514 22 22 4.8 11.3 0.00 0.00 0.00 43 1006.3
20240614070012 22 50 1.6 8.0 0.00 0.00 0.00 40 1006.4
20240614064525 23 63 11.3 19.3 0.00 0.00 0.00 38 1006.5
20240614063010 23 35 14.5 22.5 0.00 0.00 0.00 37 1006.7
20240614061514 23 25 3.2 8.0 0.00 0.00 0.00 39 1006.9
20240614060003 23 63 0.0 3.2 0.00 0.00 0.00 37 1007.0
20240614054507 23 33 0.0 6.4 0.00 0.00 0.00 37 1007.1
20240614053002 24 20 1.6 8.0 0.00 0.00 0.00 36 1007.0
20240614051603 24 51 3.2 9.7 0.00 0.00 0.00 35 1006.7
20240614050058 24 42 8.0 12.9 0.00 0.00 0.00 35 1006.6
20240614044556 25 59 6.4 11.3 0.00 0.00 0.00 34 1006.5
20240614043056 26 46 9.7 16.1 0.00 0.00 0.00 33 1006.4
20240614041604 26 60 16.1 24.1 0.00 0.00 0.00 33 1006.3
20240614040054 26 56 12.9 25.7 0.00 0.00 0.00 32 1006.3
20240614034629 27 60 19.3 27.4 0.00 0.00 0.00 31 1005.8
20240614033055 27 67 17.7 41.8 0.00 0.00 0.00 31 1005.1
20240614031559 27 64 20.9 33.8 0.00 0.00 0.00 29 1004.6
20240614030047 28 124 20.9 41.8 0.00 0.00 0.00 27 1004.9
20240614024546 30 71 17.7 37.0 0.00 0.00 0.00 22 1003.9
20240614023047 30 76 29.0 48.3 0.00 0.00 0.00 21 1002.5
20240614021547 31 81 20.9 48.3 0.00 0.00 0.00 20 1002.1
20240614020045 31 49 24.1 45.1 0.00 0.00 0.00 17 1001.8
20240614014547 32 55 24.1 35.4 0.00 0.00 0.00 16 1001.6
20240614013106 33 56 32.2 41.8 0.00 0.00 0.00 16 1001.2
20240614011546 35 35 8.0 24.1 0.00 0.00 0.00 11 1000.8
20240614010042 36 29 3.2 8.0 0.00 0.00 0.00 12 1000.5
20240614004543 36 111 4.8 11.3 0.00 0.00 0.00 10 1000.3
20240614003043 36 67 8.0 14.5 0.00 0.00 0.00 10 1000.1
20240614001540 36 131 4.8 11.3 0.00 0.00 0.00 10 1000.1
20240614000041 36 126 6.4 16.1 0.00 0.00 0.00 9 1000.0
20240613234539 36 88 8.0 24.1 0.00 0.00 0.00 10 1000.2
20240613233048 36 133 8.0 16.1 0.00 0.00 0.00 10 1000.3
20240613231538 36 148 11.3 20.9 0.00 0.00 0.00 10 1000.5
20240613230035 36 135 6.4 14.5 0.00 0.00 0.00 10 1000.7
20240613224533 36 122 6.4 19.3 0.00 0.00 0.00 10 1000.7
20240613223032 36 142 6.4 14.5 0.00 0.00 0.00 9 1000.9
20240613221530 36 221 9.7 20.9 0.00 0.00 0.00 9 1001.2
20240613220048 37 192 6.4 20.9 0.00 0.00 0.00 9 1001.4
20240613214526 36 165 12.9 20.9 0.00 0.00 0.00 11 1001.6
20240613213025 37 174 16.1 27.4 0.00 0.00 0.00 10 1001.8
20240613211532 37 227 8.0 24.1 0.00 0.00 0.00 8 1001.8
20240613210022 37 282 12.9 25.7 0.00 0.00 0.00 8 1001.8
20240613204526 37 214 9.7 22.5 0.00 0.00 0.00 9 1002.0
20240613203019 37 316 9.7 33.8 0.00 0.00 0.00 9 1002.2
20240613201516 36 305 14.5 35.4 0.00 0.00 0.00 9 1002.4
20240613200018 37 351 6.4 19.3 0.00 0.00 0.00 7 1002.6
20240613194512 36 1 8.0 27.4 0.00 0.00 0.00 9 1002.7
20240613193016 36 301 12.9 27.4 0.00 0.00 0.00 8 1003.0
20240613191518 36 307 12.9 22.5 0.00 0.00 0.00 9 1003.1
20240613190009 36 302 16.1 25.7 0.00 0.00 0.00 9 1003.3
20240613184509 36 315 4.8 17.7 0.00 0.00 0.00 9 1003.5
20240613183002 35 298 11.3 25.7 0.00 0.00 0.00 9 1003.8
20240613181501 35 287 4.8 17.7 0.00 0.00 0.00 12 1003.9
20240613180059 35 242 8.0 17.7 0.00 0.00 0.00 11 1004.0
20240613174558 35 253 9.7 20.9 0.00 0.00 0.00 12 1004.0
20240613173055 35 241 3.2 16.1 0.00 0.00 0.00 13 1004.0
20240613171552 34 261 3.2 22.5 0.00 0.00 0.00 13 1004.0
20240613170050 33 275 6.4 17.7 0.00 0.00 0.00 15 1004.1
20240613164545 33 273 9.7 19.3 0.00 0.00 0.00 17 1004.2
20240613163053 32 251 6.4 14.5 0.00 0.00 0.00 17 1004.4
20240613161546 31 275 8.0 20.9 0.00 0.00 0.00 18 1004.5
20240613160044 31 206 4.8 17.7 0.00 0.00 0.00 21 1004.5
20240613154532 30 261 6.4 19.3 0.00 0.00 0.00 23 1004.6
20240613153030 29 281 8.0 17.7 0.00 0.00 0.00 26 1004.8
20240613151542 28 316 3.2 19.3 0.00 0.00 0.00 28 1004.9
20240613150027 27 346 8.0 16.1 0.00 0.00 0.00 29 1005.0
20240613144522 26 286 6.4 17.7 0.00 0.00 0.00 32 1005.0
20240613143012 25 287 6.4 14.5 0.00 0.00 0.00 34 1004.9
20240613141507 23 306 4.8 14.5 0.00 0.00 0.00 37 1004.9
20240613140003 22 233 6.4 20.9 0.00 0.00 0.00 39 1005.0
20240613134600 21 293 3.2 9.7 0.00 0.00 0.00 43 1005.0
20240613133056 20 327 3.2 11.3 0.00 0.00 0.00 45 1005.0
20240613131601 18 322 3.2 8.0 0.00 0.00 0.00 50 1005.1